sensor_id;sensor_type;location;lat;lon;timestamp;P1;durP1;ratioP1;P2;durP2;ratioP2
67372;SDS011;54257;54.496;18.412;2022-09-09T00:04:33;4.90;;;2.10;;
67372;SDS011;54257;54.496;18.412;2022-09-09T00:10:04;4.60;;;1.80;;
67372;SDS011;54257;54.496;18.412;2022-09-09T00:15:52;7.90;;;2.00;;
67372;SDS011;54257;54.496;18.412;2022-09-09T00:18:45;4.00;;;2.30;;
67372;SDS011;54257;54.496;18.412;2022-09-09T00:21:34;5.60;;;1.90;;
67372;SDS011;54257;54.496;18.412;2022-09-09T00:24:37;3.40;;;2.30;;
67372;SDS011;54257;54.496;18.412;2022-09-09T00:27:14;6.20;;;2.70;;
67372;SDS011;54257;54.496;18.412;2022-09-09T00:30:12;6.80;;;1.80;;
67372;SDS011;54257;54.496;18.412;2022-09-09T00:32:45;3.10;;;2.00;;
67372;SDS011;54257;54.496;18.412;2022-09-09T00:35:16;2.80;;;2.10;;
67372;SDS011;54257;54.496;18.412;2022-09-09T00:38:00;3.30;;;2.20;;
67372;SDS011;54257;54.496;18.412;2022-09-09T00:40:39;2.40;;;1.90;;
67372;SDS011;54257;54.496;18.412;2022-09-09T00:43:28;3.60;;;1.90;;
67372;SDS011;54257;54.496;18.412;2022-09-09T00:49:00;7.00;;;2.30;;
67372;SDS011;54257;54.496;18.412;2022-09-09T00:54:35;3.10;;;2.20;;
67372;SDS011;54257;54.496;18.412;2022-09-09T00:57:14;3.40;;;1.90;;
67372;SDS011;54257;54.496;18.412;2022-09-09T01:02:58;8.60;;;2.10;;
67372;SDS011;54257;54.496;18.412;2022-09-09T01:05:39;3.50;;;2.30;;
67372;SDS011;54257;54.496;18.412;2022-09-09T01:11:23;2.70;;;1.40;;
67372;SDS011;54257;54.496;18.412;2022-09-09T01:14:05;3.10;;;1.90;;
67372;SDS011;54257;54.496;18.412;2022-09-09T01:16:59;4.00;;;1.80;;
67372;SDS011;54257;54.496;18.412;2022-09-09T01:19:36;3.40;;;1.90;;
67372;SDS011;54257;54.496;18.412;2022-09-09T01:28:28;2.90;;;1.70;;
67372;SDS011;54257;54.496;18.412;2022-09-09T01:30:57;5.00;;;2.10;;
67372;SDS011;54257;54.496;18.412;2022-09-09T01:33:25;2.20;;;1.90;;
67372;SDS011;54257;54.496;18.412;2022-09-09T01:38:31;2.10;;;1.70;;
67372;SDS011;54257;54.496;18.412;2022-09-09T01:41:01;3.70;;;1.90;;
67372;SDS011;54257;54.496;18.412;2022-09-09T01:43:29;2.80;;;1.70;;
67372;SDS011;54257;54.496;18.412;2022-09-09T01:45:58;3.90;;;1.80;;
67372;SDS011;54257;54.496;18.412;2022-09-09T01:48:27;3.50;;;1.80;;
67372;SDS011;54257;54.496;18.412;2022-09-09T01:50:54;3.60;;;2.00;;
67372;SDS011;54257;54.496;18.412;2022-09-09T01:53:22;4.00;;;2.10;;
67372;SDS011;54257;54.496;18.412;2022-09-09T01:56:13;3.20;;;1.60;;
67372;SDS011;54257;54.496;18.412;2022-09-09T02:01:23;3.20;;;2.00;;
67372;SDS011;54257;54.496;18.412;2022-09-09T02:04:20;3.30;;;1.80;;
67372;SDS011;54257;54.496;18.412;2022-09-09T02:06:53;3.90;;;1.60;;
67372;SDS011;54257;54.496;18.412;2022-09-09T02:09:24;2.70;;;1.70;;
67372;SDS011;54257;54.496;18.412;2022-09-09T02:11:55;5.00;;;1.80;;
67372;SDS011;54257;54.496;18.412;2022-09-09T02:14:48;4.30;;;1.90;;
67372;SDS011;54257;54.496;18.412;2022-09-09T02:17:29;2.90;;;1.50;;
67372;SDS011;54257;54.496;18.412;2022-09-09T02:20:40;4.10;;;1.80;;
67372;SDS011;54257;54.496;18.412;2022-09-09T02:23:24;3.70;;;1.90;;
67372;SDS011;54257;54.496;18.412;2022-09-09T02:25:52;3.30;;;2.00;;
67372;SDS011;54257;54.496;18.412;2022-09-09T02:28:22;3.30;;;1.90;;
67372;SDS011;54257;54.496;18.412;2022-09-09T02:30:53;3.50;;;2.50;;
67372;SDS011;54257;54.496;18.412;2022-09-09T02:33:26;4.10;;;2.10;;
67372;SDS011;54257;54.496;18.412;2022-09-09T02:35:56;2.40;;;1.90;;
67372;SDS011;54257;54.496;18.412;2022-09-09T02:38:32;3.00;;;1.70;;
67372;SDS011;54257;54.496;18.412;2022-09-09T02:41:03;1.70;;;1.60;;
67372;SDS011;54257;54.496;18.412;2022-09-09T02:43:34;4.90;;;2.30;;
67372;SDS011;54257;54.496;18.412;2022-09-09T02:51:58;3.00;;;1.60;;
67372;SDS011;54257;54.496;18.412;2022-09-09T02:54:32;6.00;;;2.20;;
67372;SDS011;54257;54.496;18.412;2022-09-09T02:59:38;4.90;;;2.20;;
67372;SDS011;54257;54.496;18.412;2022-09-09T03:02:07;3.50;;;2.10;;
67372;SDS011;54257;54.496;18.412;2022-09-09T03:04:38;3.20;;;2.00;;
67372;SDS011;54257;54.496;18.412;2022-09-09T03:07:05;5.20;;;2.00;;
67372;SDS011;54257;54.496;18.412;2022-09-09T03:09:32;3.10;;;1.90;;
67372;SDS011;54257;54.496;18.412;2022-09-09T03:11:59;6.40;;;2.40;;
67372;SDS011;54257;54.496;18.412;2022-09-09T03:14:26;5.30;;;2.10;;
67372;SDS011;54257;54.496;18.412;2022-09-09T03:16:54;5.30;;;2.80;;
67372;SDS011;54257;54.496;18.412;2022-09-09T03:19:23;7.00;;;1.90;;
67372;SDS011;54257;54.496;18.412;2022-09-09T03:21:51;3.50;;;1.90;;
67372;SDS011;54257;54.496;18.412;2022-09-09T03:24:18;3.30;;;2.30;;
67372;SDS011;54257;54.496;18.412;2022-09-09T03:26:45;11.20;;;2.90;;
67372;SDS011;54257;54.496;18.412;2022-09-09T03:29:13;3.40;;;2.00;;
67372;SDS011;54257;54.496;18.412;2022-09-09T03:31:41;4.70;;;2.10;;
67372;SDS011;54257;54.496;18.412;2022-09-09T03:34:09;4.50;;;2.10;;
67372;SDS011;54257;54.496;18.412;2022-09-09T03:36:37;3.80;;;2.40;;
67372;SDS011;54257;54.496;18.412;2022-09-09T03:39:04;4.50;;;2.40;;
67372;SDS011;54257;54.496;18.412;2022-09-09T03:41:31;4.60;;;2.30;;
67372;SDS011;54257;54.496;18.412;2022-09-09T03:43:59;2.40;;;1.90;;
67372;SDS011;54257;54.496;18.412;2022-09-09T03:46:26;2.90;;;2.00;;
67372;SDS011;54257;54.496;18.412;2022-09-09T03:48:53;2.90;;;2.30;;
67372;SDS011;54257;54.496;18.412;2022-09-09T03:51:20;4.80;;;2.20;;
67372;SDS011;54257;54.496;18.412;2022-09-09T03:53:48;8.30;;;2.60;;
67372;SDS011;54257;54.496;18.412;2022-09-09T03:56:15;2.60;;;2.00;;
67372;SDS011;54257;54.496;18.412;2022-09-09T03:58:42;3.60;;;2.40;;
67372;SDS011;54257;54.496;18.412;2022-09-09T04:01:14;3.30;;;2.20;;
67372;SDS011;54257;54.496;18.412;2022-09-09T04:03:41;5.70;;;3.20;;
67372;SDS011;54257;54.496;18.412;2022-09-09T04:06:09;3.70;;;3.00;;
67372;SDS011;54257;54.496;18.412;2022-09-09T04:08:40;3.70;;;2.70;;
67372;SDS011;54257;54.496;18.412;2022-09-09T04:11:08;5.70;;;2.80;;
67372;SDS011;54257;54.496;18.412;2022-09-09T04:13:37;5.40;;;3.00;;
67372;SDS011;54257;54.496;18.412;2022-09-09T04:16:10;4.70;;;3.00;;
67372;SDS011;54257;54.496;18.412;2022-09-09T04:18:40;4.20;;;2.90;;
67372;SDS011;54257;54.496;18.412;2022-09-09T04:21:08;7.30;;;3.20;;
67372;SDS011;54257;54.496;18.412;2022-09-09T04:23:37;3.50;;;2.90;;
67372;SDS011;54257;54.496;18.412;2022-09-09T04:26:04;4.20;;;2.90;;
67372;SDS011;54257;54.496;18.412;2022-09-09T04:28:33;6.40;;;3.50;;
67372;SDS011;54257;54.496;18.412;2022-09-09T04:31:10;4.90;;;3.50;;
67372;SDS011;54257;54.496;18.412;2022-09-09T04:33:44;4.80;;;3.00;;
67372;SDS011;54257;54.496;18.412;2022-09-09T04:36:13;4.90;;;3.70;;
67372;SDS011;54257;54.496;18.412;2022-09-09T04:38:40;4.80;;;3.50;;
67372;SDS011;54257;54.496;18.412;2022-09-09T04:41:08;4.30;;;3.10;;
67372;SDS011;54257;54.496;18.412;2022-09-09T04:43:38;4.10;;;3.40;;
67372;SDS011;54257;54.496;18.412;2022-09-09T04:46:05;4.10;;;3.10;;
67372;SDS011;54257;54.496;18.412;2022-09-09T04:48:33;6.20;;;3.30;;
67372;SDS011;54257;54.496;18.412;2022-09-09T04:53:30;4.30;;;3.60;;
67372;SDS011;54257;54.496;18.412;2022-09-09T04:56:02;5.20;;;3.50;;
67372;SDS011;54257;54.496;18.412;2022-09-09T04:58:31;18.70;;;3.40;;
67372;SDS011;54257;54.496;18.412;2022-09-09T05:01:06;7.30;;;3.80;;
67372;SDS011;54257;54.496;18.412;2022-09-09T05:03:39;6.10;;;3.30;;
67372;SDS011;54257;54.496;18.412;2022-09-09T05:06:07;4.60;;;3.40;;
67372;SDS011;54257;54.496;18.412;2022-09-09T05:11:17;3.70;;;3.10;;
67372;SDS011;54257;54.496;18.412;2022-09-09T05:13:46;5.10;;;3.50;;
67372;SDS011;54257;54.496;18.412;2022-09-09T05:16:14;4.90;;;3.30;;
67372;SDS011;54257;54.496;18.412;2022-09-09T05:18:44;5.90;;;3.50;;
67372;SDS011;54257;54.496;18.412;2022-09-09T05:21:17;4.80;;;3.10;;
67372;SDS011;54257;54.496;18.412;2022-09-09T05:23:46;5.20;;;3.10;;
67372;SDS011;54257;54.496;18.412;2022-09-09T05:26:21;3.70;;;2.80;;
67372;SDS011;54257;54.496;18.412;2022-09-09T05:28:49;3.70;;;3.20;;
67372;SDS011;54257;54.496;18.412;2022-09-09T05:31:17;4.20;;;2.80;;
67372;SDS011;54257;54.496;18.412;2022-09-09T05:33:46;4.30;;;2.60;;
67372;SDS011;54257;54.496;18.412;2022-09-09T05:36:17;5.50;;;3.30;;
67372;SDS011;54257;54.496;18.412;2022-09-09T05:38:48;5.80;;;3.30;;
67372;SDS011;54257;54.496;18.412;2022-09-09T05:41:16;4.30;;;2.90;;
67372;SDS011;54257;54.496;18.412;2022-09-09T05:43:44;3.90;;;2.80;;
67372;SDS011;54257;54.496;18.412;2022-09-09T05:46:14;4.40;;;3.10;;
67372;SDS011;54257;54.496;18.412;2022-09-09T05:48:44;4.80;;;2.80;;
67372;SDS011;54257;54.496;18.412;2022-09-09T05:51:14;4.00;;;2.90;;
67372;SDS011;54257;54.496;18.412;2022-09-09T05:53:44;4.20;;;2.90;;
67372;SDS011;54257;54.496;18.412;2022-09-09T05:56:19;3.90;;;3.00;;
67372;SDS011;54257;54.496;18.412;2022-09-09T05:58:51;4.50;;;3.00;;
67372;SDS011;54257;54.496;18.412;2022-09-09T06:01:25;4.00;;;3.30;;
67372;SDS011;54257;54.496;18.412;2022-09-09T06:03:54;4.50;;;3.00;;
67372;SDS011;54257;54.496;18.412;2022-09-09T06:06:22;3.70;;;3.00;;
67372;SDS011;54257;54.496;18.412;2022-09-09T06:08:55;2.90;;;2.50;;
67372;SDS011;54257;54.496;18.412;2022-09-09T06:11:30;5.40;;;3.00;;
67372;SDS011;54257;54.496;18.412;2022-09-09T06:13:58;3.30;;;2.70;;
67372;SDS011;54257;54.496;18.412;2022-09-09T06:16:27;4.10;;;2.60;;
67372;SDS011;54257;54.496;18.412;2022-09-09T06:18:56;3.50;;;3.20;;
67372;SDS011;54257;54.496;18.412;2022-09-09T06:21:25;3.70;;;3.10;;
67372;SDS011;54257;54.496;18.412;2022-09-09T06:23:54;5.70;;;3.30;;
67372;SDS011;54257;54.496;18.412;2022-09-09T06:26:23;3.90;;;3.20;;
67372;SDS011;54257;54.496;18.412;2022-09-09T06:28:52;3.80;;;2.70;;
67372;SDS011;54257;54.496;18.412;2022-09-09T06:31:22;5.10;;;3.00;;
67372;SDS011;54257;54.496;18.412;2022-09-09T06:33:52;4.10;;;3.10;;
67372;SDS011;54257;54.496;18.412;2022-09-09T06:36:23;5.50;;;3.50;;
67372;SDS011;54257;54.496;18.412;2022-09-09T06:38:52;3.60;;;2.80;;
67372;SDS011;54257;54.496;18.412;2022-09-09T06:41:20;3.70;;;3.10;;
67372;SDS011;54257;54.496;18.412;2022-09-09T06:43:49;2.80;;;2.50;;
67372;SDS011;54257;54.496;18.412;2022-09-09T06:46:17;4.90;;;3.30;;
67372;SDS011;54257;54.496;18.412;2022-09-09T06:48:46;4.10;;;3.20;;
67372;SDS011;54257;54.496;18.412;2022-09-09T06:51:17;3.50;;;2.70;;
67372;SDS011;54257;54.496;18.412;2022-09-09T06:53:45;4.90;;;2.90;;
67372;SDS011;54257;54.496;18.412;2022-09-09T06:56:21;3.80;;;3.40;;
67372;SDS011;54257;54.496;18.412;2022-09-09T06:59:03;5.20;;;3.00;;
67372;SDS011;54257;54.496;18.412;2022-09-09T07:01:33;6.60;;;3.50;;
67372;SDS011;54257;54.496;18.412;2022-09-09T07:04:01;3.70;;;2.70;;
67372;SDS011;54257;54.496;18.412;2022-09-09T07:06:32;3.40;;;2.80;;
67372;SDS011;54257;54.496;18.412;2022-09-09T07:09:03;4.10;;;3.10;;
67372;SDS011;54257;54.496;18.412;2022-09-09T07:11:37;3.40;;;2.70;;
67372;SDS011;54257;54.496;18.412;2022-09-09T07:14:08;3.60;;;2.50;;
67372;SDS011;54257;54.496;18.412;2022-09-09T07:16:43;5.90;;;2.90;;
67372;SDS011;54257;54.496;18.412;2022-09-09T07:19:12;4.00;;;2.50;;
67372;SDS011;54257;54.496;18.412;2022-09-09T07:21:41;4.60;;;2.30;;
67372;SDS011;54257;54.496;18.412;2022-09-09T07:24:09;2.40;;;2.20;;
67372;SDS011;54257;54.496;18.412;2022-09-09T07:26:38;5.30;;;2.50;;
67372;SDS011;54257;54.496;18.412;2022-09-09T07:29:06;2.50;;;2.30;;
67372;SDS011;54257;54.496;18.412;2022-09-09T07:31:35;2.70;;;2.40;;
67372;SDS011;54257;54.496;18.412;2022-09-09T07:34:04;2.90;;;2.50;;
67372;SDS011;54257;54.496;18.412;2022-09-09T07:36:36;3.70;;;2.20;;
67372;SDS011;54257;54.496;18.412;2022-09-09T07:39:06;4.80;;;2.70;;
67372;SDS011;54257;54.496;18.412;2022-09-09T07:41:42;3.30;;;2.20;;
67372;SDS011;54257;54.496;18.412;2022-09-09T07:44:13;3.10;;;2.30;;
67372;SDS011;54257;54.496;18.412;2022-09-09T07:46:46;4.30;;;2.40;;
67372;SDS011;54257;54.496;18.412;2022-09-09T07:49:14;3.20;;;2.50;;
67372;SDS011;54257;54.496;18.412;2022-09-09T07:51:42;4.60;;;3.20;;
67372;SDS011;54257;54.496;18.412;2022-09-09T07:54:12;3.60;;;2.90;;
67372;SDS011;54257;54.496;18.412;2022-09-09T07:56:41;4.70;;;3.20;;
67372;SDS011;54257;54.496;18.412;2022-09-09T07:59:09;5.30;;;3.30;;
67372;SDS011;54257;54.496;18.412;2022-09-09T08:01:38;4.10;;;3.60;;
67372;SDS011;54257;54.496;18.412;2022-09-09T08:04:10;5.70;;;3.70;;
67372;SDS011;54257;54.496;18.412;2022-09-09T08:06:49;11.80;;;4.20;;
67372;SDS011;54257;54.496;18.412;2022-09-09T08:09:20;5.40;;;3.50;;
67372;SDS011;54257;54.496;18.412;2022-09-09T08:11:51;6.70;;;3.80;;
67372;SDS011;54257;54.496;18.412;2022-09-09T08:14:18;4.30;;;3.70;;
67372;SDS011;54257;54.496;18.412;2022-09-09T08:16:46;4.20;;;3.40;;
67372;SDS011;54257;54.496;18.412;2022-09-09T08:19:15;4.50;;;3.70;;
67372;SDS011;54257;54.496;18.412;2022-09-09T08:21:44;5.00;;;3.70;;
67372;SDS011;54257;54.496;18.412;2022-09-09T08:24:12;4.30;;;3.60;;
67372;SDS011;54257;54.496;18.412;2022-09-09T08:26:44;4.40;;;3.90;;
67372;SDS011;54257;54.496;18.412;2022-09-09T08:29:15;5.00;;;3.80;;
67372;SDS011;54257;54.496;18.412;2022-09-09T08:31:44;5.20;;;3.60;;
67372;SDS011;54257;54.496;18.412;2022-09-09T08:34:24;5.30;;;4.10;;
67372;SDS011;54257;54.496;18.412;2022-09-09T08:36:53;5.60;;;4.10;;
67372;SDS011;54257;54.496;18.412;2022-09-09T08:39:21;4.80;;;3.70;;
67372;SDS011;54257;54.496;18.412;2022-09-09T08:44:49;5.50;;;4.10;;
67372;SDS011;54257;54.496;18.412;2022-09-09T08:52:38;4.20;;;3.80;;
67372;SDS011;54257;54.496;18.412;2022-09-09T08:55:29;4.60;;;3.50;;
67372;SDS011;54257;54.496;18.412;2022-09-09T08:58:23;4.60;;;4.20;;
67372;SDS011;54257;54.496;18.412;2022-09-09T09:11:54;3.40;;;3.00;;
67372;SDS011;54257;54.496;18.412;2022-09-09T09:14:34;2.60;;;2.30;;
67372;SDS011;54257;54.496;18.412;2022-09-09T09:17:05;3.60;;;2.80;;
67372;SDS011;54257;54.496;18.412;2022-09-09T09:19:39;4.60;;;2.30;;
67372;SDS011;54257;54.496;18.412;2022-09-09T09:22:52;4.60;;;2.50;;
67372;SDS011;54257;54.496;18.412;2022-09-09T09:25:11;3.10;;;2.50;;
67372;SDS011;54257;54.496;18.412;2022-09-09T09:30:34;3.20;;;2.90;;
67372;SDS011;54257;54.496;18.412;2022-09-09T09:36:00;2.80;;;2.50;;
67372;SDS011;54257;54.496;18.412;2022-09-09T09:38:29;2.50;;;2.30;;
67372;SDS011;54257;54.496;18.412;2022-09-09T09:40:57;2.50;;;2.30;;
67372;SDS011;54257;54.496;18.412;2022-09-09T09:43:27;2.80;;;2.50;;
67372;SDS011;54257;54.496;18.412;2022-09-09T09:45:56;2.20;;;2.00;;
67372;SDS011;54257;54.496;18.412;2022-09-09T09:48:25;5.30;;;2.60;;
67372;SDS011;54257;54.496;18.412;2022-09-09T09:50:55;2.30;;;2.20;;
67372;SDS011;54257;54.496;18.412;2022-09-09T09:55:57;2.80;;;2.50;;
67372;SDS011;54257;54.496;18.412;2022-09-09T09:58:25;3.10;;;2.70;;
67372;SDS011;54257;54.496;18.412;2022-09-09T10:00:54;3.70;;;3.00;;
67372;SDS011;54257;54.496;18.412;2022-09-09T10:03:23;3.70;;;3.30;;
67372;SDS011;54257;54.496;18.412;2022-09-09T10:05:56;3.90;;;3.50;;
67372;SDS011;54257;54.496;18.412;2022-09-09T10:08:24;5.30;;;3.40;;
67372;SDS011;54257;54.496;18.412;2022-09-09T10:19:21;5.50;;;3.80;;
67372;SDS011;54257;54.496;18.412;2022-09-09T10:27:44;4.50;;;4.10;;
67372;SDS011;54257;54.496;18.412;2022-09-09T10:30:18;10.90;;;4.90;;
67372;SDS011;54257;54.496;18.412;2022-09-09T10:41:37;4.80;;;4.30;;
67372;SDS011;54257;54.496;18.412;2022-09-09T10:47:13;6.10;;;4.40;;
67372;SDS011;54257;54.496;18.412;2022-09-09T10:49:55;5.40;;;4.70;;
67372;SDS011;54257;54.496;18.412;2022-09-09T10:55:41;15.50;;;12.70;;
67372;SDS011;54257;54.496;18.412;2022-09-09T10:58:32;7.80;;;6.70;;
67372;SDS011;54257;54.496;18.412;2022-09-09T11:01:30;5.90;;;5.40;;
67372;SDS011;54257;54.496;18.412;2022-09-09T11:04:12;6.30;;;5.50;;
67372;SDS011;54257;54.496;18.412;2022-09-09T11:06:51;6.50;;;4.90;;
67372;SDS011;54257;54.496;18.412;2022-09-09T11:09:28;7.40;;;5.50;;
67372;SDS011;54257;54.496;18.412;2022-09-09T11:14:31;6.20;;;5.50;;
67372;SDS011;54257;54.496;18.412;2022-09-09T11:17:15;6.20;;;5.60;;
67372;SDS011;54257;54.496;18.412;2022-09-09T11:19:45;7.20;;;5.50;;
67372;SDS011;54257;54.496;18.412;2022-09-09T11:30:24;7.10;;;6.40;;
67372;SDS011;54257;54.496;18.412;2022-09-09T11:41:52;7.30;;;6.00;;
67372;SDS011;54257;54.496;18.412;2022-09-09T11:44:25;8.30;;;6.40;;
67372;SDS011;54257;54.496;18.412;2022-09-09T11:46:58;7.40;;;6.30;;
67372;SDS011;54257;54.496;18.412;2022-09-09T11:52:23;6.70;;;6.10;;
67372;SDS011;54257;54.496;18.412;2022-09-09T11:54:54;8.10;;;6.70;;
67372;SDS011;54257;54.496;18.412;2022-09-09T11:57:31;8.80;;;7.30;;
67372;SDS011;54257;54.496;18.412;2022-09-09T12:00:02;7.60;;;6.70;;
67372;SDS011;54257;54.496;18.412;2022-09-09T12:02:30;6.90;;;5.90;;
67372;SDS011;54257;54.496;18.412;2022-09-09T12:10:26;6.60;;;5.70;;
67372;SDS011;54257;54.496;18.412;2022-09-09T12:13:07;7.40;;;5.90;;
67372;SDS011;54257;54.496;18.412;2022-09-09T12:15:51;7.40;;;6.30;;
67372;SDS011;54257;54.496;18.412;2022-09-09T12:18:25;6.30;;;5.60;;
67372;SDS011;54257;54.496;18.412;2022-09-09T12:24:13;6.40;;;5.60;;
67372;SDS011;54257;54.496;18.412;2022-09-09T12:29:45;6.30;;;5.20;;
67372;SDS011;54257;54.496;18.412;2022-09-09T12:32:29;6.20;;;5.60;;
67372;SDS011;54257;54.496;18.412;2022-09-09T12:35:02;6.50;;;5.80;;
67372;SDS011;54257;54.496;18.412;2022-09-09T12:37:51;7.60;;;6.10;;
67372;SDS011;54257;54.496;18.412;2022-09-09T12:40:29;6.30;;;5.70;;
67372;SDS011;54257;54.496;18.412;2022-09-09T12:43:23;5.70;;;5.20;;
67372;SDS011;54257;54.496;18.412;2022-09-09T12:45:51;6.30;;;5.70;;
67372;SDS011;54257;54.496;18.412;2022-09-09T12:48:27;5.80;;;5.10;;
67372;SDS011;54257;54.496;18.412;2022-09-09T12:50:58;7.30;;;6.20;;
67372;SDS011;54257;54.496;18.412;2022-09-09T12:53:35;7.00;;;5.30;;
67372;SDS011;54257;54.496;18.412;2022-09-09T12:56:08;8.10;;;5.80;;
67372;SDS011;54257;54.496;18.412;2022-09-09T12:58:45;7.10;;;5.50;;
67372;SDS011;54257;54.496;18.412;2022-09-09T13:01:54;6.30;;;4.90;;
67372;SDS011;54257;54.496;18.412;2022-09-09T13:06:48;5.50;;;4.90;;
67372;SDS011;54257;54.496;18.412;2022-09-09T13:09:19;8.60;;;6.10;;
67372;SDS011;54257;54.496;18.412;2022-09-09T13:11:50;7.90;;;5.50;;
67372;SDS011;54257;54.496;18.412;2022-09-09T13:14:28;5.60;;;5.10;;
67372;SDS011;54257;54.496;18.412;2022-09-09T13:17:04;4.60;;;4.20;;
67372;SDS011;54257;54.496;18.412;2022-09-09T13:19:35;4.90;;;4.40;;
67372;SDS011;54257;54.496;18.412;2022-09-09T13:22:12;6.10;;;5.00;;
67372;SDS011;54257;54.496;18.412;2022-09-09T13:27:31;4.60;;;4.10;;
67372;SDS011;54257;54.496;18.412;2022-09-09T13:30:00;6.90;;;4.40;;
67372;SDS011;54257;54.496;18.412;2022-09-09T13:32:31;4.70;;;4.00;;
67372;SDS011;54257;54.496;18.412;2022-09-09T13:34:59;4.10;;;3.50;;
67372;SDS011;54257;54.496;18.412;2022-09-09T13:37:35;4.30;;;3.90;;
67372;SDS011;54257;54.496;18.412;2022-09-09T13:40:05;4.20;;;3.70;;
67372;SDS011;54257;54.496;18.412;2022-09-09T13:42:43;4.60;;;4.20;;
67372;SDS011;54257;54.496;18.412;2022-09-09T13:45:19;4.30;;;3.90;;
67372;SDS011;54257;54.496;18.412;2022-09-09T13:47:50;4.40;;;3.80;;
67372;SDS011;54257;54.496;18.412;2022-09-09T13:50:26;4.90;;;4.40;;
67372;SDS011;54257;54.496;18.412;2022-09-09T13:52:56;4.30;;;4.00;;
67372;SDS011;54257;54.496;18.412;2022-09-09T13:55:25;4.50;;;4.10;;
67372;SDS011;54257;54.496;18.412;2022-09-09T14:00:24;4.60;;;4.00;;
67372;SDS011;54257;54.496;18.412;2022-09-09T14:02:52;4.80;;;3.90;;
67372;SDS011;54257;54.496;18.412;2022-09-09T14:05:21;6.50;;;4.40;;
67372;SDS011;54257;54.496;18.412;2022-09-09T14:07:49;4.60;;;4.00;;
67372;SDS011;54257;54.496;18.412;2022-09-09T14:10:18;4.30;;;3.90;;
67372;SDS011;54257;54.496;18.412;2022-09-09T14:12:45;4.90;;;4.20;;
67372;SDS011;54257;54.496;18.412;2022-09-09T14:15:13;4.50;;;4.10;;
67372;SDS011;54257;54.496;18.412;2022-09-09T14:17:41;4.50;;;4.10;;
67372;SDS011;54257;54.496;18.412;2022-09-09T14:20:09;4.90;;;4.40;;
67372;SDS011;54257;54.496;18.412;2022-09-09T14:22:38;4.80;;;4.30;;
67372;SDS011;54257;54.496;18.412;2022-09-09T14:25:06;5.40;;;4.90;;
67372;SDS011;54257;54.496;18.412;2022-09-09T14:27:34;5.90;;;5.10;;
67372;SDS011;54257;54.496;18.412;2022-09-09T14:30:01;6.60;;;5.50;;
67372;SDS011;54257;54.496;18.412;2022-09-09T14:32:29;6.30;;;5.00;;
67372;SDS011;54257;54.496;18.412;2022-09-09T14:34:56;6.30;;;5.70;;
67372;SDS011;54257;54.496;18.412;2022-09-09T14:37:23;5.70;;;5.10;;
67372;SDS011;54257;54.496;18.412;2022-09-09T14:39:50;6.20;;;5.30;;
67372;SDS011;54257;54.496;18.412;2022-09-09T14:42:17;6.30;;;5.70;;
67372;SDS011;54257;54.496;18.412;2022-09-09T14:44:45;6.60;;;5.90;;
67372;SDS011;54257;54.496;18.412;2022-09-09T14:47:12;6.10;;;5.50;;
67372;SDS011;54257;54.496;18.412;2022-09-09T14:49:42;7.20;;;6.50;;
67372;SDS011;54257;54.496;18.412;2022-09-09T14:52:09;12.80;;;7.10;;
67372;SDS011;54257;54.496;18.412;2022-09-09T14:54:39;7.70;;;6.90;;
67372;SDS011;54257;54.496;18.412;2022-09-09T14:57:08;10.20;;;7.40;;
67372;SDS011;54257;54.496;18.412;2022-09-09T14:59:35;8.20;;;7.10;;
67372;SDS011;54257;54.496;18.412;2022-09-09T15:02:02;7.90;;;6.80;;
67372;SDS011;54257;54.496;18.412;2022-09-09T15:04:31;8.00;;;7.20;;
67372;SDS011;54257;54.496;18.412;2022-09-09T15:06:58;9.00;;;7.70;;
67372;SDS011;54257;54.496;18.412;2022-09-09T15:09:25;9.00;;;7.70;;
67372;SDS011;54257;54.496;18.412;2022-09-09T15:11:53;8.80;;;7.90;;
67372;SDS011;54257;54.496;18.412;2022-09-09T15:14:20;8.50;;;7.70;;
67372;SDS011;54257;54.496;18.412;2022-09-09T15:16:47;8.30;;;7.50;;
67372;SDS011;54257;54.496;18.412;2022-09-09T15:19:14;9.00;;;8.10;;
67372;SDS011;54257;54.496;18.412;2022-09-09T15:21:41;9.60;;;8.60;;
67372;SDS011;54257;54.496;18.412;2022-09-09T15:24:09;10.30;;;8.80;;
67372;SDS011;54257;54.496;18.412;2022-09-09T15:26:37;10.30;;;9.20;;
67372;SDS011;54257;54.496;18.412;2022-09-09T15:29:07;11.50;;;7.80;;
67372;SDS011;54257;54.496;18.412;2022-09-09T15:31:35;9.40;;;8.40;;
67372;SDS011;54257;54.496;18.412;2022-09-09T15:34:04;9.80;;;8.40;;
67372;SDS011;54257;54.496;18.412;2022-09-09T15:36:34;10.00;;;9.00;;
67372;SDS011;54257;54.496;18.412;2022-09-09T15:39:09;9.50;;;8.60;;
67372;SDS011;54257;54.496;18.412;2022-09-09T15:41:40;10.40;;;9.20;;
67372;SDS011;54257;54.496;18.412;2022-09-09T15:44:14;11.80;;;9.80;;
67372;SDS011;54257;54.496;18.412;2022-09-09T15:46:43;10.90;;;9.70;;
67372;SDS011;54257;54.496;18.412;2022-09-09T15:49:14;12.40;;;10.40;;
67372;SDS011;54257;54.496;18.412;2022-09-09T15:51:54;12.30;;;9.40;;
67372;SDS011;54257;54.496;18.412;2022-09-09T15:54:34;12.10;;;9.70;;
67372;SDS011;54257;54.496;18.412;2022-09-09T15:57:05;12.00;;;9.10;;
67372;SDS011;54257;54.496;18.412;2022-09-09T15:59:34;13.90;;;10.80;;
67372;SDS011;54257;54.496;18.412;2022-09-09T16:02:03;17.10;;;10.50;;
67372;SDS011;54257;54.496;18.412;2022-09-09T16:04:31;15.40;;;11.20;;
67372;SDS011;54257;54.496;18.412;2022-09-09T16:07:01;16.20;;;11.80;;
67372;SDS011;54257;54.496;18.412;2022-09-09T16:09:30;20.00;;;13.50;;
67372;SDS011;54257;54.496;18.412;2022-09-09T16:12:00;21.50;;;14.70;;
67372;SDS011;54257;54.496;18.412;2022-09-09T16:14:35;26.80;;;16.70;;
67372;SDS011;54257;54.496;18.412;2022-09-09T16:17:03;27.10;;;16.90;;
67372;SDS011;54257;54.496;18.412;2022-09-09T16:19:32;23.70;;;14.90;;
67372;SDS011;54257;54.496;18.412;2022-09-09T16:21:59;27.20;;;16.90;;
67372;SDS011;54257;54.496;18.412;2022-09-09T16:24:27;25.00;;;16.10;;
67372;SDS011;54257;54.496;18.412;2022-09-09T16:26:55;19.90;;;14.50;;
67372;SDS011;54257;54.496;18.412;2022-09-09T16:29:23;18.40;;;15.10;;
67372;SDS011;54257;54.496;18.412;2022-09-09T16:31:50;23.40;;;14.20;;
67372;SDS011;54257;54.496;18.412;2022-09-09T16:34:18;13.40;;;12.00;;
67372;SDS011;54257;54.496;18.412;2022-09-09T16:36:47;15.50;;;13.80;;
67372;SDS011;54257;54.496;18.412;2022-09-09T16:39:15;16.10;;;14.40;;
67372;SDS011;54257;54.496;18.412;2022-09-09T16:41:45;18.40;;;13.70;;
67372;SDS011;54257;54.496;18.412;2022-09-09T16:44:14;16.80;;;14.80;;
67372;SDS011;54257;54.496;18.412;2022-09-09T16:46:46;15.00;;;12.70;;
67372;SDS011;54257;54.496;18.412;2022-09-09T16:49:15;16.20;;;12.60;;
67372;SDS011;54257;54.496;18.412;2022-09-09T16:51:46;14.40;;;13.00;;
67372;SDS011;54257;54.496;18.412;2022-09-09T16:54:24;14.50;;;12.50;;
67372;SDS011;54257;54.496;18.412;2022-09-09T16:56:54;15.40;;;12.40;;
67372;SDS011;54257;54.496;18.412;2022-09-09T16:59:22;13.00;;;11.60;;
67372;SDS011;54257;54.496;18.412;2022-09-09T17:01:50;14.00;;;12.40;;
67372;SDS011;54257;54.496;18.412;2022-09-09T17:04:21;14.50;;;11.60;;
67372;SDS011;54257;54.496;18.412;2022-09-09T17:06:54;14.30;;;11.90;;
67372;SDS011;54257;54.496;18.412;2022-09-09T17:09:41;14.10;;;12.00;;
67372;SDS011;54257;54.496;18.412;2022-09-09T17:12:08;13.90;;;12.40;;
67372;SDS011;54257;54.496;18.412;2022-09-09T17:14:35;15.20;;;12.60;;
67372;SDS011;54257;54.496;18.412;2022-09-09T17:17:03;14.20;;;12.50;;
67372;SDS011;54257;54.496;18.412;2022-09-09T17:19:31;15.40;;;13.40;;
67372;SDS011;54257;54.496;18.412;2022-09-09T17:21:59;14.30;;;12.10;;
67372;SDS011;54257;54.496;18.412;2022-09-09T17:24:27;14.30;;;12.40;;